sensor_id;sensor_type;location;lat;lon;timestamp;P1;durP1;ratioP1;P2;durP2;ratioP2
4409;SDS011;2218;51.408;7.208;2023-04-16T00:01:28;0.73;;;0.73;;
4409;SDS011;2218;51.408;7.208;2023-04-16T00:03:55;0.90;;;0.80;;
4409;SDS011;2218;51.408;7.208;2023-04-16T00:06:22;0.80;;;0.80;;
4409;SDS011;2218;51.408;7.208;2023-04-16T00:08:49;0.70;;;0.70;;
4409;SDS011;2218;51.408;7.208;2023-04-16T00:11:16;0.80;;;0.80;;
4409;SDS011;2218;51.408;7.208;2023-04-16T00:13:43;0.80;;;0.80;;
4409;SDS011;2218;51.408;7.208;2023-04-16T00:16:11;0.80;;;0.70;;
4409;SDS011;2218;51.408;7.208;2023-04-16T00:18:38;0.80;;;0.73;;
4409;SDS011;2218;51.408;7.208;2023-04-16T00:21:05;0.80;;;0.70;;
4409;SDS011;2218;51.408;7.208;2023-04-16T00:23:32;0.80;;;0.80;;
4409;SDS011;2218;51.408;7.208;2023-04-16T00:25:59;1.10;;;1.00;;
4409;SDS011;2218;51.408;7.208;2023-04-16T00:28:26;0.70;;;0.70;;
4409;SDS011;2218;51.408;7.208;2023-04-16T00:30:53;0.80;;;0.73;;
4409;SDS011;2218;51.408;7.208;2023-04-16T00:33:22;0.83;;;0.83;;
4409;SDS011;2218;51.408;7.208;2023-04-16T00:35:49;0.90;;;0.90;;
4409;SDS011;2218;51.408;7.208;2023-04-16T00:38:16;0.87;;;0.80;;
4409;SDS011;2218;51.408;7.208;2023-04-16T00:40:43;0.70;;;0.70;;
4409;SDS011;2218;51.408;7.208;2023-04-16T00:43:10;0.80;;;0.80;;
4409;SDS011;2218;51.408;7.208;2023-04-16T00:45:37;0.80;;;0.80;;
4409;SDS011;2218;51.408;7.208;2023-04-16T00:48:04;0.80;;;0.80;;
4409;SDS011;2218;51.408;7.208;2023-04-16T00:50:33;1.10;;;0.77;;
4409;SDS011;2218;51.408;7.208;2023-04-16T00:53:00;0.73;;;0.73;;
4409;SDS011;2218;51.408;7.208;2023-04-16T00:55:28;0.83;;;0.83;;
4409;SDS011;2218;51.408;7.208;2023-04-16T00:57:55;0.70;;;0.60;;
4409;SDS011;2218;51.408;7.208;2023-04-16T01:00:22;0.80;;;0.73;;
4409;SDS011;2218;51.408;7.208;2023-04-16T01:02:50;0.80;;;0.80;;
4409;SDS011;2218;51.408;7.208;2023-04-16T01:05:18;0.73;;;0.73;;
4409;SDS011;2218;51.408;7.208;2023-04-16T01:07:47;0.73;;;0.73;;
4409;SDS011;2218;51.408;7.208;2023-04-16T01:10:15;0.80;;;0.70;;
4409;SDS011;2218;51.408;7.208;2023-04-16T01:12:42;0.70;;;0.50;;
4409;SDS011;2218;51.408;7.208;2023-04-16T01:15:09;0.80;;;0.80;;
4409;SDS011;2218;51.408;7.208;2023-04-16T01:17:37;0.80;;;0.70;;
4409;SDS011;2218;51.408;7.208;2023-04-16T01:20:04;0.80;;;0.80;;
4409;SDS011;2218;51.408;7.208;2023-04-16T01:22:33;0.80;;;0.77;;
4409;SDS011;2218;51.408;7.208;2023-04-16T01:25:00;0.70;;;0.70;;
4409;SDS011;2218;51.408;7.208;2023-04-16T01:27:27;0.90;;;0.80;;
4409;SDS011;2218;51.408;7.208;2023-04-16T01:29:55;0.70;;;0.60;;
4409;SDS011;2218;51.408;7.208;2023-04-16T01:32:33;0.70;;;0.63;;
4409;SDS011;2218;51.408;7.208;2023-04-16T01:35:00;0.70;;;0.50;;
4409;SDS011;2218;51.408;7.208;2023-04-16T01:37:27;0.70;;;0.60;;
4409;SDS011;2218;51.408;7.208;2023-04-16T01:39:57;0.80;;;0.80;;
4409;SDS011;2218;51.408;7.208;2023-04-16T01:42:24;0.70;;;0.53;;
4409;SDS011;2218;51.408;7.208;2023-04-16T01:44:52;0.70;;;0.63;;
4409;SDS011;2218;51.408;7.208;2023-04-16T01:47:19;0.97;;;0.90;;
4409;SDS011;2218;51.408;7.208;2023-04-16T01:49:46;0.93;;;0.60;;
4409;SDS011;2218;51.408;7.208;2023-04-16T01:52:13;2.33;;;0.70;;
4409;SDS011;2218;51.408;7.208;2023-04-16T01:54:40;0.80;;;0.70;;
4409;SDS011;2218;51.408;7.208;2023-04-16T01:57:09;0.80;;;0.60;;
4409;SDS011;2218;51.408;7.208;2023-04-16T01:59:36;0.80;;;0.70;;
4409;SDS011;2218;51.408;7.208;2023-04-16T02:02:05;0.80;;;0.80;;
4409;SDS011;2218;51.408;7.208;2023-04-16T02:04:35;1.10;;;1.00;;
4409;SDS011;2218;51.408;7.208;2023-04-16T02:07:02;0.80;;;0.77;;
4409;SDS011;2218;51.408;7.208;2023-04-16T02:09:30;0.70;;;0.60;;
4409;SDS011;2218;51.408;7.208;2023-04-16T02:12:00;0.80;;;0.70;;
4409;SDS011;2218;51.408;7.208;2023-04-16T02:14:29;0.70;;;0.60;;
4409;SDS011;2218;51.408;7.208;2023-04-16T02:16:56;0.80;;;0.80;;
4409;SDS011;2218;51.408;7.208;2023-04-16T02:19:35;0.80;;;0.80;;
4409;SDS011;2218;51.408;7.208;2023-04-16T02:22:03;0.70;;;0.67;;
4409;SDS011;2218;51.408;7.208;2023-04-16T02:24:31;0.80;;;0.70;;
4409;SDS011;2218;51.408;7.208;2023-04-16T02:27:02;0.93;;;0.83;;
4409;SDS011;2218;51.408;7.208;2023-04-16T02:29:30;0.80;;;0.70;;
4409;SDS011;2218;51.408;7.208;2023-04-16T02:32:05;0.90;;;0.90;;
4409;SDS011;2218;51.408;7.208;2023-04-16T02:34:33;0.90;;;0.70;;
4409;SDS011;2218;51.408;7.208;2023-04-16T02:37:00;0.80;;;0.80;;
4409;SDS011;2218;51.408;7.208;2023-04-16T02:39:27;0.80;;;0.60;;
4409;SDS011;2218;51.408;7.208;2023-04-16T02:41:54;0.80;;;0.70;;
4409;SDS011;2218;51.408;7.208;2023-04-16T02:44:22;0.80;;;0.70;;
4409;SDS011;2218;51.408;7.208;2023-04-16T02:46:50;0.80;;;0.70;;
4409;SDS011;2218;51.408;7.208;2023-04-16T02:49:17;0.80;;;0.73;;
4409;SDS011;2218;51.408;7.208;2023-04-16T02:51:44;0.70;;;0.67;;
4409;SDS011;2218;51.408;7.208;2023-04-16T02:54:11;0.97;;;0.80;;
4409;SDS011;2218;51.408;7.208;2023-04-16T02:56:38;0.80;;;0.70;;
4409;SDS011;2218;51.408;7.208;2023-04-16T02:59:05;0.80;;;0.80;;
4409;SDS011;2218;51.408;7.208;2023-04-16T03:01:32;0.77;;;0.77;;
4409;SDS011;2218;51.408;7.208;2023-04-16T03:04:00;0.80;;;0.77;;
4409;SDS011;2218;51.408;7.208;2023-04-16T03:06:27;0.70;;;0.60;;
4409;SDS011;2218;51.408;7.208;2023-04-16T03:08:54;0.80;;;0.70;;
4409;SDS011;2218;51.408;7.208;2023-04-16T03:11:21;0.80;;;0.70;;
4409;SDS011;2218;51.408;7.208;2023-04-16T03:13:48;0.70;;;0.60;;
4409;SDS011;2218;51.408;7.208;2023-04-16T03:16:15;0.73;;;0.73;;
4409;SDS011;2218;51.408;7.208;2023-04-16T03:18:42;0.90;;;0.90;;
4409;SDS011;2218;51.408;7.208;2023-04-16T03:21:10;0.93;;;0.93;;
4409;SDS011;2218;51.408;7.208;2023-04-16T03:23:37;0.70;;;0.60;;
4409;SDS011;2218;51.408;7.208;2023-04-16T03:26:04;1.20;;;1.10;;
4409;SDS011;2218;51.408;7.208;2023-04-16T03:28:31;0.80;;;0.70;;
4409;SDS011;2218;51.408;7.208;2023-04-16T03:30:58;0.80;;;0.77;;
4409;SDS011;2218;51.408;7.208;2023-04-16T03:33:25;0.70;;;0.67;;
4409;SDS011;2218;51.408;7.208;2023-04-16T03:35:55;0.90;;;0.90;;
4409;SDS011;2218;51.408;7.208;2023-04-16T03:38:26;1.00;;;0.70;;
4409;SDS011;2218;51.408;7.208;2023-04-16T03:40:55;0.83;;;0.83;;
4409;SDS011;2218;51.408;7.208;2023-04-16T03:43:22;0.97;;;0.90;;
4409;SDS011;2218;51.408;7.208;2023-04-16T03:45:49;0.93;;;0.93;;
4409;SDS011;2218;51.408;7.208;2023-04-16T03:48:19;0.90;;;0.90;;
4409;SDS011;2218;51.408;7.208;2023-04-16T03:50:46;0.80;;;0.70;;
4409;SDS011;2218;51.408;7.208;2023-04-16T03:53:15;0.80;;;0.70;;
4409;SDS011;2218;51.408;7.208;2023-04-16T03:55:43;1.63;;;0.70;;
4409;SDS011;2218;51.408;7.208;2023-04-16T03:58:10;0.70;;;0.67;;
4409;SDS011;2218;51.408;7.208;2023-04-16T04:00:39;0.80;;;0.80;;
4409;SDS011;2218;51.408;7.208;2023-04-16T04:03:11;0.80;;;0.70;;
4409;SDS011;2218;51.408;7.208;2023-04-16T04:05:42;0.80;;;0.80;;
4409;SDS011;2218;51.408;7.208;2023-04-16T04:08:12;1.10;;;1.00;;
4409;SDS011;2218;51.408;7.208;2023-04-16T04:10:39;0.80;;;0.70;;
4409;SDS011;2218;51.408;7.208;2023-04-16T04:13:10;1.07;;;1.00;;
4409;SDS011;2218;51.408;7.208;2023-04-16T04:15:37;1.20;;;1.10;;
4409;SDS011;2218;51.408;7.208;2023-04-16T04:18:04;1.10;;;0.97;;
4409;SDS011;2218;51.408;7.208;2023-04-16T04:20:31;0.83;;;0.83;;
4409;SDS011;2218;51.408;7.208;2023-04-16T04:22:59;0.80;;;0.80;;
4409;SDS011;2218;51.408;7.208;2023-04-16T04:25:26;0.80;;;0.80;;
4409;SDS011;2218;51.408;7.208;2023-04-16T04:27:53;0.90;;;0.90;;
4409;SDS011;2218;51.408;7.208;2023-04-16T04:30:22;0.90;;;0.70;;
4409;SDS011;2218;51.408;7.208;2023-04-16T04:32:49;0.90;;;0.90;;
4409;SDS011;2218;51.408;7.208;2023-04-16T04:35:16;1.00;;;0.90;;
4409;SDS011;2218;51.408;7.208;2023-04-16T04:37:43;0.90;;;0.90;;
4409;SDS011;2218;51.408;7.208;2023-04-16T04:40:13;1.30;;;1.00;;
4409;SDS011;2218;51.408;7.208;2023-04-16T04:42:41;0.80;;;0.70;;
4409;SDS011;2218;51.408;7.208;2023-04-16T04:45:09;0.80;;;0.80;;
4409;SDS011;2218;51.408;7.208;2023-04-16T04:47:37;0.80;;;0.80;;
4409;SDS011;2218;51.408;7.208;2023-04-16T04:50:05;1.20;;;1.10;;
4409;SDS011;2218;51.408;7.208;2023-04-16T04:52:33;0.90;;;0.90;;
4409;SDS011;2218;51.408;7.208;2023-04-16T04:55:01;0.90;;;0.90;;
4409;SDS011;2218;51.408;7.208;2023-04-16T04:57:28;1.10;;;1.03;;
4409;SDS011;2218;51.408;7.208;2023-04-16T04:59:55;0.80;;;0.80;;
4409;SDS011;2218;51.408;7.208;2023-04-16T05:02:22;0.90;;;0.90;;
4409;SDS011;2218;51.408;7.208;2023-04-16T05:04:51;1.10;;;1.00;;
4409;SDS011;2218;51.408;7.208;2023-04-16T05:07:18;1.23;;;1.00;;
4409;SDS011;2218;51.408;7.208;2023-04-16T05:09:45;0.90;;;0.90;;
4409;SDS011;2218;51.408;7.208;2023-04-16T05:12:11;1.00;;;0.90;;
4409;SDS011;2218;51.408;7.208;2023-04-16T05:14:38;1.40;;;1.30;;
4409;SDS011;2218;51.408;7.208;2023-04-16T05:17:05;1.10;;;1.00;;
4409;SDS011;2218;51.408;7.208;2023-04-16T05:19:32;1.10;;;1.00;;
4409;SDS011;2218;51.408;7.208;2023-04-16T05:22:02;1.00;;;1.00;;
4409;SDS011;2218;51.408;7.208;2023-04-16T05:24:28;1.10;;;1.00;;
4409;SDS011;2218;51.408;7.208;2023-04-16T05:26:55;1.10;;;1.00;;
4409;SDS011;2218;51.408;7.208;2023-04-16T05:29:22;0.90;;;0.90;;
4409;SDS011;2218;51.408;7.208;2023-04-16T05:31:50;0.97;;;0.97;;
4409;SDS011;2218;51.408;7.208;2023-04-16T05:34:17;0.90;;;0.80;;
4409;SDS011;2218;51.408;7.208;2023-04-16T05:36:44;0.80;;;0.80;;
4409;SDS011;2218;51.408;7.208;2023-04-16T05:39:12;1.20;;;1.10;;
4409;SDS011;2218;51.408;7.208;2023-04-16T05:41:39;0.90;;;0.87;;
4409;SDS011;2218;51.408;7.208;2023-04-16T05:44:06;1.30;;;1.20;;
4409;SDS011;2218;51.408;7.208;2023-04-16T05:46:33;0.90;;;0.87;;
4409;SDS011;2218;51.408;7.208;2023-04-16T05:49:00;0.90;;;0.90;;
4409;SDS011;2218;51.408;7.208;2023-04-16T05:51:27;1.10;;;1.00;;
4409;SDS011;2218;51.408;7.208;2023-04-16T05:53:54;1.10;;;1.00;;
4409;SDS011;2218;51.408;7.208;2023-04-16T05:56:22;1.20;;;1.10;;
4409;SDS011;2218;51.408;7.208;2023-04-16T05:58:50;1.33;;;1.23;;
4409;SDS011;2218;51.408;7.208;2023-04-16T06:01:17;1.17;;;1.07;;
4409;SDS011;2218;51.408;7.208;2023-04-16T06:03:44;1.10;;;1.07;;
4409;SDS011;2218;51.408;7.208;2023-04-16T06:06:10;1.20;;;1.10;;
4409;SDS011;2218;51.408;7.208;2023-04-16T06:08:37;1.40;;;1.30;;
4409;SDS011;2218;51.408;7.208;2023-04-16T06:11:04;1.20;;;1.10;;
4409;SDS011;2218;51.408;7.208;2023-04-16T06:13:33;1.17;;;1.10;;
4409;SDS011;2218;51.408;7.208;2023-04-16T06:16:00;1.20;;;0.90;;
4409;SDS011;2218;51.408;7.208;2023-04-16T06:18:27;1.00;;;1.00;;
4409;SDS011;2218;51.408;7.208;2023-04-16T06:20:54;1.67;;;1.37;;
4409;SDS011;2218;51.408;7.208;2023-04-16T06:23:23;1.30;;;1.20;;
4409;SDS011;2218;51.408;7.208;2023-04-16T06:25:49;0.87;;;0.87;;
4409;SDS011;2218;51.408;7.208;2023-04-16T06:28:16;0.90;;;0.90;;
4409;SDS011;2218;51.408;7.208;2023-04-16T06:30:45;1.27;;;1.17;;
4409;SDS011;2218;51.408;7.208;2023-04-16T06:33:12;1.30;;;1.20;;
4409;SDS011;2218;51.408;7.208;2023-04-16T06:35:39;1.10;;;1.00;;
4409;SDS011;2218;51.408;7.208;2023-04-16T06:38:06;1.30;;;1.20;;
4409;SDS011;2218;51.408;7.208;2023-04-16T06:40:33;1.00;;;1.00;;
4409;SDS011;2218;51.408;7.208;2023-04-16T06:43:01;1.17;;;1.07;;
4409;SDS011;2218;51.408;7.208;2023-04-16T06:45:28;1.10;;;1.00;;
4409;SDS011;2218;51.408;7.208;2023-04-16T06:47:56;1.27;;;1.17;;
4409;SDS011;2218;51.408;7.208;2023-04-16T06:50:23;1.27;;;1.00;;
4409;SDS011;2218;51.408;7.208;2023-04-16T06:52:52;1.10;;;1.00;;
4409;SDS011;2218;51.408;7.208;2023-04-16T06:55:19;1.50;;;1.40;;
4409;SDS011;2218;51.408;7.208;2023-04-16T06:57:46;0.90;;;0.80;;
4409;SDS011;2218;51.408;7.208;2023-04-16T07:00:13;1.20;;;1.10;;
4409;SDS011;2218;51.408;7.208;2023-04-16T07:02:40;1.20;;;1.10;;
4409;SDS011;2218;51.408;7.208;2023-04-16T07:05:08;1.40;;;1.30;;
4409;SDS011;2218;51.408;7.208;2023-04-16T07:07:35;1.50;;;1.40;;
4409;SDS011;2218;51.408;7.208;2023-04-16T07:10:02;1.33;;;1.23;;
4409;SDS011;2218;51.408;7.208;2023-04-16T07:12:30;1.10;;;1.00;;
4409;SDS011;2218;51.408;7.208;2023-04-16T07:14:58;1.20;;;1.10;;
4409;SDS011;2218;51.408;7.208;2023-04-16T07:17:25;1.33;;;1.23;;
4409;SDS011;2218;51.408;7.208;2023-04-16T07:19:52;1.10;;;1.10;;
4409;SDS011;2218;51.408;7.208;2023-04-16T07:22:20;1.27;;;1.17;;
4409;SDS011;2218;51.408;7.208;2023-04-16T07:24:47;1.60;;;1.50;;
4409;SDS011;2218;51.408;7.208;2023-04-16T07:27:14;1.00;;;1.00;;
4409;SDS011;2218;51.408;7.208;2023-04-16T07:29:41;1.20;;;1.10;;
4409;SDS011;2218;51.408;7.208;2023-04-16T07:32:10;1.17;;;1.07;;
4409;SDS011;2218;51.408;7.208;2023-04-16T07:34:37;1.07;;;1.07;;
4409;SDS011;2218;51.408;7.208;2023-04-16T07:37:04;1.50;;;1.40;;
4409;SDS011;2218;51.408;7.208;2023-04-16T07:39:32;1.20;;;1.10;;
4409;SDS011;2218;51.408;7.208;2023-04-16T07:41:59;1.30;;;1.20;;
4409;SDS011;2218;51.408;7.208;2023-04-16T07:44:26;1.23;;;1.13;;
4409;SDS011;2218;51.408;7.208;2023-04-16T07:46:53;1.40;;;1.30;;
4409;SDS011;2218;51.408;7.208;2023-04-16T07:49:20;1.30;;;1.20;;
4409;SDS011;2218;51.408;7.208;2023-04-16T07:51:47;1.33;;;1.23;;
4409;SDS011;2218;51.408;7.208;2023-04-16T07:54:14;1.20;;;1.10;;
4409;SDS011;2218;51.408;7.208;2023-04-16T07:56:42;1.20;;;1.10;;
4409;SDS011;2218;51.408;7.208;2023-04-16T07:59:09;1.33;;;1.23;;
4409;SDS011;2218;51.408;7.208;2023-04-16T08:01:36;1.20;;;1.10;;
4409;SDS011;2218;51.408;7.208;2023-04-16T08:04:03;1.40;;;1.30;;
4409;SDS011;2218;51.408;7.208;2023-04-16T08:06:30;1.20;;;1.10;;
4409;SDS011;2218;51.408;7.208;2023-04-16T08:08:57;1.50;;;1.40;;
4409;SDS011;2218;51.408;7.208;2023-04-16T08:11:25;1.30;;;1.20;;
4409;SDS011;2218;51.408;7.208;2023-04-16T08:13:54;1.40;;;1.30;;
4409;SDS011;2218;51.408;7.208;2023-04-16T08:16:20;1.40;;;1.30;;
4409;SDS011;2218;51.408;7.208;2023-04-16T08:18:47;1.20;;;1.13;;
4409;SDS011;2218;51.408;7.208;2023-04-16T08:21:14;1.30;;;1.20;;
4409;SDS011;2218;51.408;7.208;2023-04-16T08:23:41;1.23;;;1.13;;
4409;SDS011;2218;51.408;7.208;2023-04-16T08:26:08;1.30;;;1.20;;
4409;SDS011;2218;51.408;7.208;2023-04-16T08:28:35;1.50;;;1.40;;
4409;SDS011;2218;51.408;7.208;2023-04-16T08:31:03;1.37;;;1.27;;
4409;SDS011;2218;51.408;7.208;2023-04-16T08:33:31;1.23;;;1.13;;
4409;SDS011;2218;51.408;7.208;2023-04-16T08:35:57;1.27;;;1.17;;
4409;SDS011;2218;51.408;7.208;2023-04-16T08:38:25;1.37;;;1.27;;
4409;SDS011;2218;51.408;7.208;2023-04-16T08:40:51;1.30;;;1.20;;
4409;SDS011;2218;51.408;7.208;2023-04-16T08:43:21;1.47;;;1.37;;
4409;SDS011;2218;51.408;7.208;2023-04-16T08:45:50;1.30;;;1.20;;
4409;SDS011;2218;51.408;7.208;2023-04-16T08:48:22;1.30;;;1.20;;
4409;SDS011;2218;51.408;7.208;2023-04-16T08:50:51;1.40;;;1.30;;
4409;SDS011;2218;51.408;7.208;2023-04-16T08:53:19;1.30;;;1.20;;
4409;SDS011;2218;51.408;7.208;2023-04-16T08:55:57;1.27;;;1.17;;
4409;SDS011;2218;51.408;7.208;2023-04-16T08:58:28;1.30;;;1.20;;
4409;SDS011;2218;51.408;7.208;2023-04-16T09:00:59;1.43;;;1.33;;
4409;SDS011;2218;51.408;7.208;2023-04-16T09:03:29;1.63;;;1.53;;
4409;SDS011;2218;51.408;7.208;2023-04-16T09:05:57;1.20;;;1.10;;
4409;SDS011;2218;51.408;7.208;2023-04-16T09:08:27;1.33;;;1.23;;
4409;SDS011;2218;51.408;7.208;2023-04-16T09:10:55;1.47;;;1.37;;
4409;SDS011;2218;51.408;7.208;2023-04-16T09:13:22;1.30;;;1.20;;
4409;SDS011;2218;51.408;7.208;2023-04-16T09:15:50;1.33;;;1.23;;
4409;SDS011;2218;51.408;7.208;2023-04-16T09:18:21;1.47;;;1.37;;
4409;SDS011;2218;51.408;7.208;2023-04-16T09:20:49;1.40;;;1.30;;
4409;SDS011;2218;51.408;7.208;2023-04-16T09:23:17;1.43;;;1.33;;
4409;SDS011;2218;51.408;7.208;2023-04-16T09:25:44;1.20;;;1.10;;
4409;SDS011;2218;51.408;7.208;2023-04-16T09:28:11;1.50;;;1.40;;
4409;SDS011;2218;51.408;7.208;2023-04-16T09:30:38;1.40;;;1.30;;
4409;SDS011;2218;51.408;7.208;2023-04-16T09:33:12;1.20;;;1.10;;
4409;SDS011;2218;51.408;7.208;2023-04-16T09:35:44;1.50;;;1.40;;
4409;SDS011;2218;51.408;7.208;2023-04-16T09:38:14;1.30;;;1.20;;
4409;SDS011;2218;51.408;7.208;2023-04-16T09:40:41;1.40;;;1.30;;
4409;SDS011;2218;51.408;7.208;2023-04-16T09:43:09;1.37;;;1.27;;
4409;SDS011;2218;51.408;7.208;2023-04-16T09:45:47;1.60;;;1.50;;
4409;SDS011;2218;51.408;7.208;2023-04-16T09:48:17;1.20;;;1.10;;
4409;SDS011;2218;51.408;7.208;2023-04-16T09:50:55;1.40;;;1.30;;
4409;SDS011;2218;51.408;7.208;2023-04-16T09:53:23;1.10;;;1.10;;
4409;SDS011;2218;51.408;7.208;2023-04-16T09:55:51;1.70;;;1.60;;
4409;SDS011;2218;51.408;7.208;2023-04-16T09:58:22;1.40;;;1.30;;
4409;SDS011;2218;51.408;7.208;2023-04-16T10:00:51;1.40;;;1.30;;
4409;SDS011;2218;51.408;7.208;2023-04-16T10:03:27;1.60;;;1.50;;
4409;SDS011;2218;51.408;7.208;2023-04-16T10:05:58;1.43;;;1.33;;
4409;SDS011;2218;51.408;7.208;2023-04-16T10:08:28;1.50;;;1.40;;
4409;SDS011;2218;51.408;7.208;2023-04-16T10:10:55;1.17;;;1.07;;
4409;SDS011;2218;51.408;7.208;2023-04-16T10:13:23;1.40;;;1.30;;
4409;SDS011;2218;51.408;7.208;2023-04-16T10:15:52;1.20;;;1.10;;
4409;SDS011;2218;51.408;7.208;2023-04-16T10:18:22;1.10;;;1.00;;
4409;SDS011;2218;51.408;7.208;2023-04-16T10:20:49;1.30;;;1.20;;
4409;SDS011;2218;51.408;7.208;2023-04-16T10:23:16;1.37;;;1.27;;
4409;SDS011;2218;51.408;7.208;2023-04-16T10:25:49;1.30;;;1.20;;
4409;SDS011;2218;51.408;7.208;2023-04-16T10:28:19;1.30;;;1.20;;
4409;SDS011;2218;51.408;7.208;2023-04-16T10:30:47;1.50;;;1.40;;
4409;SDS011;2218;51.408;7.208;2023-04-16T10:33:21;1.50;;;1.40;;
4409;SDS011;2218;51.408;7.208;2023-04-16T10:35:51;1.30;;;1.20;;
4409;SDS011;2218;51.408;7.208;2023-04-16T10:38:31;1.33;;;1.23;;
4409;SDS011;2218;51.408;7.208;2023-04-16T10:41:02;1.60;;;1.50;;
4409;SDS011;2218;51.408;7.208;2023-04-16T10:43:32;1.40;;;1.30;;
4409;SDS011;2218;51.408;7.208;2023-04-16T10:46:17;1.60;;;1.50;;
4409;SDS011;2218;51.408;7.208;2023-04-16T10:48:52;1.40;;;1.30;;
4409;SDS011;2218;51.408;7.208;2023-04-16T10:51:27;1.30;;;1.20;;
4409;SDS011;2218;51.408;7.208;2023-04-16T10:53:56;1.57;;;1.47;;
4409;SDS011;2218;51.408;7.208;2023-04-16T10:56:32;1.60;;;1.50;;
4409;SDS011;2218;51.408;7.208;2023-04-16T10:59:03;1.53;;;1.43;;
4409;SDS011;2218;51.408;7.208;2023-04-16T11:01:32;1.53;;;1.43;;
4409;SDS011;2218;51.408;7.208;2023-04-16T11:04:25;1.50;;;1.40;;
4409;SDS011;2218;51.408;7.208;2023-04-16T11:07:03;1.40;;;1.30;;
4409;SDS011;2218;51.408;7.208;2023-04-16T11:09:46;1.37;;;1.27;;
4409;SDS011;2218;51.408;7.208;2023-04-16T11:12:23;1.60;;;1.50;;
4409;SDS011;2218;51.408;7.208;2023-04-16T11:14:57;1.80;;;1.70;;
4409;SDS011;2218;51.408;7.208;2023-04-16T11:17:27;1.50;;;1.40;;
4409;SDS011;2218;51.408;7.208;2023-04-16T11:19:57;1.27;;;1.20;;
4409;SDS011;2218;51.408;7.208;2023-04-16T11:22:24;1.33;;;1.23;;
4409;SDS011;2218;51.408;7.208;2023-04-16T11:24:53;1.40;;;1.30;;
4409;SDS011;2218;51.408;7.208;2023-04-16T11:27:23;1.40;;;1.30;;
4409;SDS011;2218;51.408;7.208;2023-04-16T11:29:57;1.43;;;1.33;;
4409;SDS011;2218;51.408;7.208;2023-04-16T11:32:26;1.60;;;1.50;;
4409;SDS011;2218;51.408;7.208;2023-04-16T11:34:55;1.60;;;1.50;;
4409;SDS011;2218;51.408;7.208;2023-04-16T11:37:30;1.47;;;1.37;;
4409;SDS011;2218;51.408;7.208;2023-04-16T11:39:59;1.50;;;1.40;;
4409;SDS011;2218;51.408;7.208;2023-04-16T11:42:27;1.40;;;1.30;;
4409;SDS011;2218;51.408;7.208;2023-04-16T11:44:55;1.47;;;1.37;;
4409;SDS011;2218;51.408;7.208;2023-04-16T11:47:25;1.50;;;1.40;;
4409;SDS011;2218;51.408;7.208;2023-04-16T11:49:55;1.50;;;1.40;;
4409;SDS011;2218;51.408;7.208;2023-04-16T11:52:25;1.50;;;1.40;;
4409;SDS011;2218;51.408;7.208;2023-04-16T11:54:54;1.53;;;1.43;;
4409;SDS011;2218;51.408;7.208;2023-04-16T11:57:25;1.77;;;1.67;;
4409;SDS011;2218;51.408;7.208;2023-04-16T11:59:55;1.40;;;1.30;;
4409;SDS011;2218;51.408;7.208;2023-04-16T12:02:33;1.67;;;1.57;;
4409;SDS011;2218;51.408;7.208;2023-04-16T12:05:02;1.43;;;1.33;;
4409;SDS011;2218;51.408;7.208;2023-04-16T12:07:29;1.50;;;1.40;;
4409;SDS011;2218;51.408;7.208;2023-04-16T12:10:06;1.50;;;1.40;;
4409;SDS011;2218;51.408;7.208;2023-04-16T12:12:35;1.57;;;1.47;;
4409;SDS011;2218;51.408;7.208;2023-04-16T12:15:02;1.50;;;1.40;;
4409;SDS011;2218;51.408;7.208;2023-04-16T12:17:30;1.60;;;1.50;;
4409;SDS011;2218;51.408;7.208;2023-04-16T12:19:59;1.63;;;1.53;;
4409;SDS011;2218;51.408;7.208;2023-04-16T12:22:30;1.53;;;1.43;;
4409;SDS011;2218;51.408;7.208;2023-04-16T12:24:59;1.53;;;1.43;;
4409;SDS011;2218;51.408;7.208;2023-04-16T12:27:45;1.33;;;1.23;;
4409;SDS011;2218;51.408;7.208;2023-04-16T12:30:15;1.43;;;1.33;;
4409;SDS011;2218;51.408;7.208;2023-04-16T12:32:44;1.60;;;1.50;;
4409;SDS011;2218;51.408;7.208;2023-04-16T12:35:13;1.60;;;1.50;;
4409;SDS011;2218;51.408;7.208;2023-04-16T12:37:56;1.70;;;1.60;;
4409;SDS011;2218;51.408;7.208;2023-04-16T12:40:23;1.50;;;1.40;;
4409;SDS011;2218;51.408;7.208;2023-04-16T12:42:51;2.10;;;1.30;;
4409;SDS011;2218;51.408;7.208;2023-04-16T12:45:19;1.30;;;1.20;;
4409;SDS011;2218;51.408;7.208;2023-04-16T12:47:46;3.30;;;1.40;;
4409;SDS011;2218;51.408;7.208;2023-04-16T12:50:14;1.53;;;1.43;;
4409;SDS011;2218;51.408;7.208;2023-04-16T12:52:41;1.50;;;1.40;;
4409;SDS011;2218;51.408;7.208;2023-04-16T12:55:08;1.97;;;1.87;;
4409;SDS011;2218;51.408;7.208;2023-04-16T12:57:35;1.57;;;1.47;;
4409;SDS011;2218;51.408;7.208;2023-04-16T13:00:04;1.77;;;1.67;;
4409;SDS011;2218;51.408;7.208;2023-04-16T13:02:34;1.53;;;1.43;;
4409;SDS011;2218;51.408;7.208;2023-04-16T13:05:01;1.43;;;1.33;;
4409;SDS011;2218;51.408;7.208;2023-04-16T13:07:28;1.50;;;1.40;;
4409;SDS011;2218;51.408;7.208;2023-04-16T13:09:57;1.47;;;1.37;;
4409;SDS011;2218;51.408;7.208;2023-04-16T13:12:25;1.63;;;1.53;;
4409;SDS011;2218;51.408;7.208;2023-04-16T13:14:52;1.40;;;1.30;;
4409;SDS011;2218;51.408;7.208;2023-04-16T13:17:21;1.53;;;1.43;;
4409;SDS011;2218;51.408;7.208;2023-04-16T13:19:48;1.53;;;1.43;;
4409;SDS011;2218;51.408;7.208;2023-04-16T13:22:15;1.47;;;1.37;;
4409;SDS011;2218;51.408;7.208;2023-04-16T13:24:42;1.50;;;1.40;;
4409;SDS011;2218;51.408;7.208;2023-04-16T13:27:10;1.67;;;1.57;;
4409;SDS011;2218;51.408;7.208;2023-04-16T13:29:37;1.40;;;1.30;;
4409;SDS011;2218;51.408;7.208;2023-04-16T13:32:04;1.50;;;1.40;;
4409;SDS011;2218;51.408;7.208;2023-04-16T13:34:33;1.53;;;1.43;;
4409;SDS011;2218;51.408;7.208;2023-04-16T13:37:00;1.50;;;1.40;;
4409;SDS011;2218;51.408;7.208;2023-04-16T13:39:27;1.70;;;1.60;;
4409;SDS011;2218;51.408;7.208;2023-04-16T13:41:54;1.40;;;1.30;;
4409;SDS011;2218;51.408;7.208;2023-04-16T13:44:20;1.30;;;1.20;;
4409;SDS011;2218;51.408;7.208;2023-04-16T13:46:48;1.73;;;1.63;;
4409;SDS011;2218;51.408;7.208;2023-04-16T13:49:14;1.40;;;1.30;;
4409;SDS011;2218;51.408;7.208;2023-04-16T13:51:43;1.97;;;1.87;;
4409;SDS011;2218;51.408;7.208;2023-04-16T13:54:10;1.87;;;1.77;;
4409;SDS011;2218;51.408;7.208;2023-04-16T13:56:37;1.47;;;1.37;;
4409;SDS011;2218;51.408;7.208;2023-04-16T13:59:05;1.40;;;1.30;;
4409;SDS011;2218;51.408;7.208;2023-04-16T14:01:32;1.50;;;1.40;;
4409;SDS011;2218;51.408;7.208;2023-04-16T14:03:59;1.50;;;1.40;;
4409;SDS011;2218;51.408;7.208;2023-04-16T14:06:30;1.70;;;1.60;;
4409;SDS011;2218;51.408;7.208;2023-04-16T14:08:58;1.50;;;1.40;;
4409;SDS011;2218;51.408;7.208;2023-04-16T14:11:25;1.50;;;1.40;;
4409;SDS011;2218;51.408;7.208;2023-04-16T14:13:52;1.70;;;1.60;;
4409;SDS011;2218;51.408;7.208;2023-04-16T14:16:20;1.33;;;1.23;;
4409;SDS011;2218;51.408;7.208;2023-04-16T14:18:47;1.50;;;1.40;;
4409;SDS011;2218;51.408;7.208;2023-04-16T14:21:15;1.60;;;1.50;;
4409;SDS011;2218;51.408;7.208;2023-04-16T14:23:42;1.70;;;1.60;;
4409;SDS011;2218;51.408;7.208;2023-04-16T14:26:11;1.60;;;1.50;;
4409;SDS011;2218;51.408;7.208;2023-04-16T14:28:38;1.10;;;1.10;;
4409;SDS011;2218;51.408;7.208;2023-04-16T14:31:05;1.30;;;1.23;;
4409;SDS011;2218;51.408;7.208;2023-04-16T14:33:32;1.10;;;1.10;;
4409;SDS011;2218;51.408;7.208;2023-04-16T14:35:59;1.27;;;1.17;;
4409;SDS011;2218;51.408;7.208;2023-04-16T14:38:26;1.80;;;1.70;;
4409;SDS011;2218;51.408;7.208;2023-04-16T14:40:53;1.50;;;1.40;;
4409;SDS011;2218;51.408;7.208;2023-04-16T14:43:21;1.57;;;1.47;;
4409;SDS011;2218;51.408;7.208;2023-04-16T14:45:48;1.37;;;1.27;;
4409;SDS011;2218;51.408;7.208;2023-04-16T14:48:16;1.10;;;1.10;;
4409;SDS011;2218;51.408;7.208;2023-04-16T14:50:43;1.73;;;1.63;;
4409;SDS011;2218;51.408;7.208;2023-04-16T14:53:10;1.40;;;1.30;;
4409;SDS011;2218;51.408;7.208;2023-04-16T14:55:37;1.30;;;1.20;;
4409;SDS011;2218;51.408;7.208;2023-04-16T14:58:04;1.40;;;1.30;;
4409;SDS011;2218;51.408;7.208;2023-04-16T15:00:33;1.50;;;1.40;;
4409;SDS011;2218;51.408;7.208;2023-04-16T15:03:00;1.47;;;1.37;;
4409;SDS011;2218;51.408;7.208;2023-04-16T15:05:28;1.43;;;1.33;;
4409;SDS011;2218;51.408;7.208;2023-04-16T15:07:55;1.20;;;1.20;;
4409;SDS011;2218;51.408;7.208;2023-04-16T15:10:22;1.53;;;1.43;;
4409;SDS011;2218;51.408;7.208;2023-04-16T15:12:49;1.50;;;1.40;;
4409;SDS011;2218;51.408;7.208;2023-04-16T15:15:16;1.30;;;1.20;;
4409;SDS011;2218;51.408;7.208;2023-04-16T15:17:44;1.27;;;1.17;;
4409;SDS011;2218;51.408;7.208;2023-04-16T15:20:11;2.43;;;1.60;;
4409;SDS011;2218;51.408;7.208;2023-04-16T15:22:38;1.40;;;1.30;;